sensor_id;sensor_type;location;lat;lon;timestamp;P1;durP1;ratioP1;P2;durP2;ratioP2
75552;SDS011;64136;53.118;17.996;2022-10-15T00:00:38;27.80;;;15.70;;
75552;SDS011;64136;53.118;17.996;2022-10-15T00:03:25;32.70;;;18.20;;
75552;SDS011;64136;53.118;17.996;2022-10-15T00:05:52;33.30;;;18.30;;
75552;SDS011;64136;53.118;17.996;2022-10-15T00:08:18;32.20;;;16.30;;
75552;SDS011;64136;53.118;17.996;2022-10-15T00:10:44;29.30;;;17.00;;
75552;SDS011;64136;53.118;17.996;2022-10-15T00:13:11;33.40;;;18.40;;
75552;SDS011;64136;53.118;17.996;2022-10-15T00:15:37;40.20;;;21.90;;
75552;SDS011;64136;53.118;17.996;2022-10-15T00:18:04;32.80;;;19.30;;
75552;SDS011;64136;53.118;17.996;2022-10-15T00:20:30;36.60;;;20.10;;
75552;SDS011;64136;53.118;17.996;2022-10-15T00:22:57;34.20;;;18.60;;
75552;SDS011;64136;53.118;17.996;2022-10-15T00:25:23;30.70;;;16.60;;
75552;SDS011;64136;53.118;17.996;2022-10-15T00:27:50;22.50;;;12.50;;
75552;SDS011;64136;53.118;17.996;2022-10-15T00:30:17;37.40;;;21.10;;
75552;SDS011;64136;53.118;17.996;2022-10-15T00:32:44;33.80;;;19.30;;
75552;SDS011;64136;53.118;17.996;2022-10-15T00:35:10;34.90;;;18.90;;
75552;SDS011;64136;53.118;17.996;2022-10-15T00:37:37;36.50;;;18.50;;
75552;SDS011;64136;53.118;17.996;2022-10-15T00:40:03;33.10;;;18.30;;
75552;SDS011;64136;53.118;17.996;2022-10-15T00:42:31;30.10;;;17.10;;
75552;SDS011;64136;53.118;17.996;2022-10-15T00:44:58;32.00;;;17.80;;
75552;SDS011;64136;53.118;17.996;2022-10-15T00:55:18;31.00;;;18.70;;
75552;SDS011;64136;53.118;17.996;2022-10-15T00:57:50;27.20;;;16.80;;
75552;SDS011;64136;53.118;17.996;2022-10-15T01:00:18;27.90;;;13.60;;
75552;SDS011;64136;53.118;17.996;2022-10-15T01:02:45;34.10;;;16.80;;
75552;SDS011;64136;53.118;17.996;2022-10-15T01:05:12;36.40;;;19.60;;
75552;SDS011;64136;53.118;17.996;2022-10-15T01:07:40;35.50;;;18.20;;
75552;SDS011;64136;53.118;17.996;2022-10-15T01:10:07;32.90;;;18.70;;
75552;SDS011;64136;53.118;17.996;2022-10-15T01:15:38;41.10;;;21.30;;
75552;SDS011;64136;53.118;17.996;2022-10-15T01:18:48;35.00;;;20.20;;
75552;SDS011;64136;53.118;17.996;2022-10-15T01:21:16;32.20;;;18.00;;
75552;SDS011;64136;53.118;17.996;2022-10-15T01:23:56;30.00;;;16.80;;
75552;SDS011;64136;53.118;17.996;2022-10-15T01:32:43;34.50;;;18.20;;
75552;SDS011;64136;53.118;17.996;2022-10-15T01:35:26;33.60;;;17.70;;
75552;SDS011;64136;53.118;17.996;2022-10-15T01:41:09;31.10;;;19.30;;
75552;SDS011;64136;53.118;17.996;2022-10-15T01:43:44;27.00;;;16.70;;
75552;SDS011;64136;53.118;17.996;2022-10-15T01:47:10;24.70;;;14.60;;
75552;SDS011;64136;53.118;17.996;2022-10-15T01:49:40;35.30;;;18.70;;
75552;SDS011;64136;53.118;17.996;2022-10-15T01:52:12;40.30;;;18.60;;
75552;SDS011;64136;53.118;17.996;2022-10-15T01:54:40;40.00;;;21.00;;
75552;SDS011;64136;53.118;17.996;2022-10-15T01:57:07;36.70;;;20.00;;
75552;SDS011;64136;53.118;17.996;2022-10-15T01:59:36;36.70;;;18.70;;
75552;SDS011;64136;53.118;17.996;2022-10-15T02:02:02;35.90;;;19.90;;
75552;SDS011;64136;53.118;17.996;2022-10-15T02:04:29;34.30;;;18.50;;
75552;SDS011;64136;53.118;17.996;2022-10-15T02:06:59;27.90;;;17.40;;
75552;SDS011;64136;53.118;17.996;2022-10-15T02:17:47;35.70;;;19.40;;
75552;SDS011;64136;53.118;17.996;2022-10-15T02:20:22;29.90;;;16.70;;
75552;SDS011;64136;53.118;17.996;2022-10-15T02:22:59;32.70;;;16.90;;
75552;SDS011;64136;53.118;17.996;2022-10-15T02:25:32;34.50;;;19.50;;
75552;SDS011;64136;53.118;17.996;2022-10-15T02:28:00;26.70;;;16.30;;
75552;SDS011;64136;53.118;17.996;2022-10-15T02:30:29;31.50;;;19.20;;
75552;SDS011;64136;53.118;17.996;2022-10-15T02:32:57;27.30;;;15.60;;
75552;SDS011;64136;53.118;17.996;2022-10-15T02:35:25;33.30;;;17.20;;
75552;SDS011;64136;53.118;17.996;2022-10-15T02:37:52;40.30;;;18.40;;
75552;SDS011;64136;53.118;17.996;2022-10-15T02:40:24;34.60;;;18.10;;
75552;SDS011;64136;53.118;17.996;2022-10-15T02:42:53;36.30;;;19.30;;
75552;SDS011;64136;53.118;17.996;2022-10-15T02:45:21;41.00;;;19.90;;
75552;SDS011;64136;53.118;17.996;2022-10-15T02:47:47;35.30;;;19.40;;
75552;SDS011;64136;53.118;17.996;2022-10-15T02:50:14;40.80;;;20.50;;
75552;SDS011;64136;53.118;17.996;2022-10-15T02:52:41;29.80;;;17.40;;
75552;SDS011;64136;53.118;17.996;2022-10-15T02:55:08;31.30;;;17.80;;
75552;SDS011;64136;53.118;17.996;2022-10-15T02:57:34;29.00;;;17.00;;
75552;SDS011;64136;53.118;17.996;2022-10-15T03:00:03;30.70;;;19.40;;
75552;SDS011;64136;53.118;17.996;2022-10-15T03:02:30;33.00;;;19.40;;
75552;SDS011;64136;53.118;17.996;2022-10-15T03:04:57;34.60;;;20.10;;
75552;SDS011;64136;53.118;17.996;2022-10-15T03:07:24;32.70;;;18.20;;
75552;SDS011;64136;53.118;17.996;2022-10-15T03:09:50;36.00;;;19.60;;
75552;SDS011;64136;53.118;17.996;2022-10-15T03:12:17;36.70;;;18.20;;
75552;SDS011;64136;53.118;17.996;2022-10-15T03:14:46;36.90;;;19.30;;
75552;SDS011;64136;53.118;17.996;2022-10-15T03:17:13;30.30;;;17.20;;
75552;SDS011;64136;53.118;17.996;2022-10-15T03:19:39;31.90;;;17.50;;
75552;SDS011;64136;53.118;17.996;2022-10-15T03:22:06;31.40;;;17.50;;
75552;SDS011;64136;53.118;17.996;2022-10-15T03:24:41;30.80;;;18.30;;
75552;SDS011;64136;53.118;17.996;2022-10-15T03:27:07;33.00;;;18.90;;
75552;SDS011;64136;53.118;17.996;2022-10-15T03:29:34;28.10;;;17.50;;
75552;SDS011;64136;53.118;17.996;2022-10-15T03:32:03;28.40;;;18.40;;
75552;SDS011;64136;53.118;17.996;2022-10-15T03:34:29;28.40;;;17.50;;
75552;SDS011;64136;53.118;17.996;2022-10-15T03:36:56;28.20;;;16.80;;
75552;SDS011;64136;53.118;17.996;2022-10-15T03:39:23;31.30;;;18.00;;
75552;SDS011;64136;53.118;17.996;2022-10-15T03:41:52;32.30;;;15.90;;
75552;SDS011;64136;53.118;17.996;2022-10-15T03:44:22;36.80;;;19.30;;
75552;SDS011;64136;53.118;17.996;2022-10-15T03:46:58;36.30;;;20.20;;
75552;SDS011;64136;53.118;17.996;2022-10-15T03:49:28;36.40;;;17.80;;
75552;SDS011;64136;53.118;17.996;2022-10-15T03:51:54;35.80;;;19.20;;
75552;SDS011;64136;53.118;17.996;2022-10-15T03:54:23;35.50;;;18.20;;
75552;SDS011;64136;53.118;17.996;2022-10-15T03:56:50;35.50;;;18.10;;
75552;SDS011;64136;53.118;17.996;2022-10-15T03:59:28;32.60;;;18.40;;
75552;SDS011;64136;53.118;17.996;2022-10-15T04:01:57;29.60;;;17.80;;
75552;SDS011;64136;53.118;17.996;2022-10-15T04:04:24;33.20;;;19.60;;
75552;SDS011;64136;53.118;17.996;2022-10-15T04:06:51;31.80;;;19.20;;
75552;SDS011;64136;53.118;17.996;2022-10-15T04:09:17;41.70;;;21.60;;
75552;SDS011;64136;53.118;17.996;2022-10-15T04:11:45;33.10;;;18.90;;
75552;SDS011;64136;53.118;17.996;2022-10-15T04:14:12;33.90;;;20.30;;
75552;SDS011;64136;53.118;17.996;2022-10-15T04:16:38;35.40;;;20.00;;
75552;SDS011;64136;53.118;17.996;2022-10-15T04:19:11;36.00;;;19.30;;
75552;SDS011;64136;53.118;17.996;2022-10-15T04:21:38;46.30;;;22.50;;
75552;SDS011;64136;53.118;17.996;2022-10-15T04:24:06;40.10;;;20.50;;
75552;SDS011;64136;53.118;17.996;2022-10-15T04:26:38;36.70;;;19.20;;
75552;SDS011;64136;53.118;17.996;2022-10-15T04:29:04;31.10;;;16.60;;
75552;SDS011;64136;53.118;17.996;2022-10-15T04:31:31;30.80;;;17.40;;
75552;SDS011;64136;53.118;17.996;2022-10-15T04:34:00;31.70;;;18.30;;
75552;SDS011;64136;53.118;17.996;2022-10-15T04:36:26;31.60;;;16.90;;
75552;SDS011;64136;53.118;17.996;2022-10-15T04:39:13;30.20;;;15.90;;
75552;SDS011;64136;53.118;17.996;2022-10-15T04:41:42;32.10;;;17.30;;
75552;SDS011;64136;53.118;17.996;2022-10-15T04:44:20;22.90;;;13.80;;
75552;SDS011;64136;53.118;17.996;2022-10-15T04:46:54;26.80;;;15.70;;
75552;SDS011;64136;53.118;17.996;2022-10-15T04:49:26;30.30;;;18.30;;
75552;SDS011;64136;53.118;17.996;2022-10-15T04:51:53;31.20;;;16.40;;
75552;SDS011;64136;53.118;17.996;2022-10-15T04:54:27;31.50;;;17.90;;
75552;SDS011;64136;53.118;17.996;2022-10-15T04:56:56;24.80;;;13.20;;
75552;SDS011;64136;53.118;17.996;2022-10-15T04:59:22;41.60;;;18.30;;
75552;SDS011;64136;53.118;17.996;2022-10-15T05:02:10;39.30;;;18.70;;
75552;SDS011;64136;53.118;17.996;2022-10-15T05:04:37;35.70;;;16.40;;
75552;SDS011;64136;53.118;17.996;2022-10-15T05:07:03;30.60;;;15.90;;
75552;SDS011;64136;53.118;17.996;2022-10-15T05:09:30;30.60;;;15.50;;
75552;SDS011;64136;53.118;17.996;2022-10-15T05:11:57;29.10;;;15.00;;
75552;SDS011;64136;53.118;17.996;2022-10-15T05:14:26;28.60;;;15.40;;
75552;SDS011;64136;53.118;17.996;2022-10-15T05:17:04;27.50;;;15.80;;
75552;SDS011;64136;53.118;17.996;2022-10-15T05:19:35;32.40;;;18.20;;
75552;SDS011;64136;53.118;17.996;2022-10-15T05:22:02;25.50;;;15.70;;
75552;SDS011;64136;53.118;17.996;2022-10-15T05:24:29;33.30;;;18.30;;
75552;SDS011;64136;53.118;17.996;2022-10-15T05:27:03;28.60;;;15.70;;
75552;SDS011;64136;53.118;17.996;2022-10-15T05:29:32;29.50;;;17.00;;
75552;SDS011;64136;53.118;17.996;2022-10-15T05:31:58;37.20;;;16.50;;
75552;SDS011;64136;53.118;17.996;2022-10-15T05:34:26;34.70;;;17.70;;
75552;SDS011;64136;53.118;17.996;2022-10-15T05:37:08;34.30;;;16.60;;
75552;SDS011;64136;53.118;17.996;2022-10-15T05:39:34;29.20;;;15.30;;
75552;SDS011;64136;53.118;17.996;2022-10-15T05:42:01;26.90;;;15.60;;
75552;SDS011;64136;53.118;17.996;2022-10-15T05:44:51;28.60;;;15.20;;
75552;SDS011;64136;53.118;17.996;2022-10-15T05:47:20;25.70;;;13.80;;
75552;SDS011;64136;53.118;17.996;2022-10-15T05:49:46;35.20;;;17.00;;
75552;SDS011;64136;53.118;17.996;2022-10-15T05:52:17;27.40;;;16.00;;
75552;SDS011;64136;53.118;17.996;2022-10-15T05:55:05;26.80;;;14.40;;
75552;SDS011;64136;53.118;17.996;2022-10-15T05:57:32;28.60;;;14.60;;
75552;SDS011;64136;53.118;17.996;2022-10-15T06:00:00;37.10;;;19.60;;
75552;SDS011;64136;53.118;17.996;2022-10-15T06:02:38;34.10;;;17.00;;
75552;SDS011;64136;53.118;17.996;2022-10-15T06:05:04;34.00;;;16.70;;
75552;SDS011;64136;53.118;17.996;2022-10-15T06:07:32;33.60;;;19.50;;
75552;SDS011;64136;53.118;17.996;2022-10-15T06:10:02;30.50;;;16.70;;
75552;SDS011;64136;53.118;17.996;2022-10-15T06:12:33;30.30;;;15.30;;
75552;SDS011;64136;53.118;17.996;2022-10-15T06:15:00;35.80;;;17.90;;
75552;SDS011;64136;53.118;17.996;2022-10-15T06:17:26;28.70;;;15.30;;
75552;SDS011;64136;53.118;17.996;2022-10-15T06:19:53;30.30;;;15.90;;
75552;SDS011;64136;53.118;17.996;2022-10-15T06:22:19;31.50;;;18.70;;
75552;SDS011;64136;53.118;17.996;2022-10-15T06:24:46;33.40;;;17.80;;
75552;SDS011;64136;53.118;17.996;2022-10-15T06:27:12;23.40;;;13.90;;
75552;SDS011;64136;53.118;17.996;2022-10-15T06:29:39;30.30;;;17.50;;
75552;SDS011;64136;53.118;17.996;2022-10-15T06:32:09;31.00;;;17.80;;
75552;SDS011;64136;53.118;17.996;2022-10-15T06:34:39;28.40;;;17.50;;
75552;SDS011;64136;53.118;17.996;2022-10-15T06:37:05;33.20;;;17.80;;
75552;SDS011;64136;53.118;17.996;2022-10-15T06:39:32;32.60;;;18.40;;
75552;SDS011;64136;53.118;17.996;2022-10-15T06:41:58;28.80;;;16.20;;
75552;SDS011;64136;53.118;17.996;2022-10-15T06:44:33;30.70;;;17.30;;
75552;SDS011;64136;53.118;17.996;2022-10-15T06:47:00;30.90;;;17.80;;
75552;SDS011;64136;53.118;17.996;2022-10-15T06:49:26;25.70;;;16.60;;
75552;SDS011;64136;53.118;17.996;2022-10-15T06:51:53;28.30;;;17.50;;
75552;SDS011;64136;53.118;17.996;2022-10-15T06:54:19;32.20;;;17.10;;
75552;SDS011;64136;53.118;17.996;2022-10-15T06:56:46;25.00;;;12.50;;
75552;SDS011;64136;53.118;17.996;2022-10-15T06:59:12;26.90;;;14.10;;
75552;SDS011;64136;53.118;17.996;2022-10-15T07:01:38;30.30;;;16.20;;
75552;SDS011;64136;53.118;17.996;2022-10-15T07:04:05;26.50;;;15.70;;
75552;SDS011;64136;53.118;17.996;2022-10-15T07:06:33;28.70;;;16.10;;
75552;SDS011;64136;53.118;17.996;2022-10-15T07:09:00;28.50;;;16.80;;
75552;SDS011;64136;53.118;17.996;2022-10-15T07:11:27;26.50;;;15.40;;
75552;SDS011;64136;53.118;17.996;2022-10-15T07:13:54;29.40;;;16.80;;
75552;SDS011;64136;53.118;17.996;2022-10-15T07:16:23;25.00;;;14.50;;
75552;SDS011;64136;53.118;17.996;2022-10-15T07:18:50;21.40;;;12.80;;
75552;SDS011;64136;53.118;17.996;2022-10-15T07:21:17;24.30;;;13.40;;
75552;SDS011;64136;53.118;17.996;2022-10-15T07:23:43;28.30;;;15.00;;
75552;SDS011;64136;53.118;17.996;2022-10-15T07:26:09;18.80;;;10.70;;
75552;SDS011;64136;53.118;17.996;2022-10-15T07:28:37;31.00;;;17.80;;
75552;SDS011;64136;53.118;17.996;2022-10-15T07:31:04;32.20;;;16.60;;
75552;SDS011;64136;53.118;17.996;2022-10-15T07:33:32;19.90;;;11.70;;
75552;SDS011;64136;53.118;17.996;2022-10-15T07:36:02;16.30;;;8.70;;
75552;SDS011;64136;53.118;17.996;2022-10-15T07:38:31;30.20;;;14.30;;
75552;SDS011;64136;53.118;17.996;2022-10-15T07:40:58;22.30;;;13.70;;
75552;SDS011;64136;53.118;17.996;2022-10-15T07:43:26;27.40;;;15.00;;
75552;SDS011;64136;53.118;17.996;2022-10-15T07:45:53;23.20;;;13.20;;
75552;SDS011;64136;53.118;17.996;2022-10-15T07:48:20;23.10;;;14.20;;
75552;SDS011;64136;53.118;17.996;2022-10-15T07:50:52;22.00;;;13.80;;
75552;SDS011;64136;53.118;17.996;2022-10-15T07:53:19;26.30;;;14.70;;
75552;SDS011;64136;53.118;17.996;2022-10-15T07:55:49;22.60;;;13.70;;
75552;SDS011;64136;53.118;17.996;2022-10-15T07:58:16;26.30;;;14.50;;
75552;SDS011;64136;53.118;17.996;2022-10-15T08:00:42;25.30;;;15.20;;
75552;SDS011;64136;53.118;17.996;2022-10-15T08:03:09;22.20;;;13.40;;
75552;SDS011;64136;53.118;17.996;2022-10-15T08:05:35;24.80;;;16.30;;
75552;SDS011;64136;53.118;17.996;2022-10-15T08:08:02;28.00;;;16.20;;
75552;SDS011;64136;53.118;17.996;2022-10-15T08:10:29;21.50;;;13.50;;
75552;SDS011;64136;53.118;17.996;2022-10-15T08:12:55;24.50;;;14.10;;
75552;SDS011;64136;53.118;17.996;2022-10-15T08:15:21;20.60;;;11.50;;
75552;SDS011;64136;53.118;17.996;2022-10-15T08:17:48;23.40;;;12.80;;
75552;SDS011;64136;53.118;17.996;2022-10-15T08:20:15;25.30;;;14.70;;
75552;SDS011;64136;53.118;17.996;2022-10-15T08:22:42;26.30;;;16.40;;
75552;SDS011;64136;53.118;17.996;2022-10-15T08:25:08;23.60;;;14.80;;
75552;SDS011;64136;53.118;17.996;2022-10-15T08:27:34;21.70;;;13.90;;
75552;SDS011;64136;53.118;17.996;2022-10-15T08:30:03;21.00;;;12.60;;
75552;SDS011;64136;53.118;17.996;2022-10-15T08:32:30;22.10;;;13.10;;
75552;SDS011;64136;53.118;17.996;2022-10-15T08:34:56;20.80;;;13.60;;
75552;SDS011;64136;53.118;17.996;2022-10-15T08:37:23;21.20;;;13.30;;
75552;SDS011;64136;53.118;17.996;2022-10-15T08:39:49;19.10;;;13.10;;
75552;SDS011;64136;53.118;17.996;2022-10-15T08:42:20;21.50;;;13.80;;
75552;SDS011;64136;53.118;17.996;2022-10-15T08:44:55;21.20;;;12.70;;
75552;SDS011;64136;53.118;17.996;2022-10-15T08:50:22;19.70;;;13.70;;
75552;SDS011;64136;53.118;17.996;2022-10-15T08:52:53;19.40;;;13.50;;
75552;SDS011;64136;53.118;17.996;2022-10-15T08:55:21;16.50;;;11.70;;
75552;SDS011;64136;53.118;17.996;2022-10-15T08:57:52;19.20;;;12.50;;
75552;SDS011;64136;53.118;17.996;2022-10-15T09:00:28;21.60;;;13.80;;
75552;SDS011;64136;53.118;17.996;2022-10-15T09:03:04;17.20;;;11.20;;
75552;SDS011;64136;53.118;17.996;2022-10-15T09:06:05;20.40;;;13.30;;
75552;SDS011;64136;53.118;17.996;2022-10-15T09:11:47;17.00;;;10.70;;
75552;SDS011;64136;53.118;17.996;2022-10-15T09:14:21;16.20;;;10.90;;
75552;SDS011;64136;53.118;17.996;2022-10-15T09:16:50;20.30;;;13.20;;
75552;SDS011;64136;53.118;17.996;2022-10-15T09:19:18;22.40;;;14.00;;
75552;SDS011;64136;53.118;17.996;2022-10-15T09:21:49;19.60;;;11.90;;
75552;SDS011;64136;53.118;17.996;2022-10-15T09:24:21;18.10;;;11.30;;
75552;SDS011;64136;53.118;17.996;2022-10-15T09:29:34;22.40;;;14.20;;
75552;SDS011;64136;53.118;17.996;2022-10-15T09:40:10;20.30;;;13.00;;
75552;SDS011;64136;53.118;17.996;2022-10-15T09:42:39;18.10;;;12.40;;
75552;SDS011;64136;53.118;17.996;2022-10-15T09:45:09;21.60;;;13.60;;
75552;SDS011;64136;53.118;17.996;2022-10-15T09:47:38;17.80;;;12.30;;
75552;SDS011;64136;53.118;17.996;2022-10-15T09:50:08;17.70;;;12.10;;
75552;SDS011;64136;53.118;17.996;2022-10-15T09:55:42;24.40;;;16.60;;
75552;SDS011;64136;53.118;17.996;2022-10-15T09:58:14;23.40;;;14.70;;
75552;SDS011;64136;53.118;17.996;2022-10-15T10:03:15;23.00;;;14.30;;
75552;SDS011;64136;53.118;17.996;2022-10-15T10:05:42;21.60;;;13.70;;
75552;SDS011;64136;53.118;17.996;2022-10-15T10:10:41;22.40;;;13.10;;
75552;SDS011;64136;53.118;17.996;2022-10-15T10:13:17;23.10;;;13.80;;
75552;SDS011;64136;53.118;17.996;2022-10-15T10:15:50;27.20;;;14.90;;
75552;SDS011;64136;53.118;17.996;2022-10-15T10:18:19;21.40;;;14.00;;
75552;SDS011;64136;53.118;17.996;2022-10-15T10:21:34;25.80;;;15.60;;
75552;SDS011;64136;53.118;17.996;2022-10-15T10:23:53;21.40;;;12.70;;
75552;SDS011;64136;53.118;17.996;2022-10-15T10:26:20;22.10;;;14.80;;
75552;SDS011;64136;53.118;17.996;2022-10-15T10:28:52;23.60;;;14.90;;
75552;SDS011;64136;53.118;17.996;2022-10-15T10:31:26;22.40;;;12.80;;
75552;SDS011;64136;53.118;17.996;2022-10-15T10:33:54;25.00;;;16.10;;
75552;SDS011;64136;53.118;17.996;2022-10-15T10:36:25;21.30;;;13.70;;
75552;SDS011;64136;53.118;17.996;2022-10-15T10:44:38;22.20;;;13.70;;
75552;SDS011;64136;53.118;17.996;2022-10-15T10:49:32;20.10;;;12.00;;
75552;SDS011;64136;53.118;17.996;2022-10-15T10:52:02;22.70;;;12.60;;
75552;SDS011;64136;53.118;17.996;2022-10-15T10:54:29;20.70;;;13.70;;
75552;SDS011;64136;53.118;17.996;2022-10-15T10:59:24;21.90;;;14.00;;
75552;SDS011;64136;53.118;17.996;2022-10-15T11:01:53;21.20;;;12.90;;
75552;SDS011;64136;53.118;17.996;2022-10-15T11:04:25;28.20;;;15.10;;
75552;SDS011;64136;53.118;17.996;2022-10-15T11:20:31;26.70;;;16.80;;
75552;SDS011;64136;53.118;17.996;2022-10-15T11:45:16;25.40;;;14.90;;
75552;SDS011;64136;53.118;17.996;2022-10-15T11:48:01;24.20;;;14.10;;
75552;SDS011;64136;53.118;17.996;2022-10-15T11:50:56;23.50;;;15.20;;
75552;SDS011;64136;53.118;17.996;2022-10-15T11:53:31;26.20;;;16.10;;
75552;SDS011;64136;53.118;17.996;2022-10-15T11:56:05;19.80;;;11.00;;
75552;SDS011;64136;53.118;17.996;2022-10-15T11:58:40;25.40;;;15.10;;
75552;SDS011;64136;53.118;17.996;2022-10-15T12:04:19;22.20;;;14.20;;
75552;SDS011;64136;53.118;17.996;2022-10-15T12:06:56;31.50;;;19.60;;
75552;SDS011;64136;53.118;17.996;2022-10-15T12:09:25;25.10;;;16.50;;
75552;SDS011;64136;53.118;17.996;2022-10-15T12:11:58;27.50;;;16.50;;
75552;SDS011;64136;53.118;17.996;2022-10-15T12:17:09;21.00;;;13.30;;
75552;SDS011;64136;53.118;17.996;2022-10-15T12:22:52;23.50;;;16.00;;
75552;SDS011;64136;53.118;17.996;2022-10-15T12:28:01;22.30;;;13.90;;
75552;SDS011;64136;53.118;17.996;2022-10-15T12:30:40;25.40;;;14.70;;
75552;SDS011;64136;53.118;17.996;2022-10-15T12:36:26;23.70;;;15.00;;
75552;SDS011;64136;53.118;17.996;2022-10-15T12:41:39;26.60;;;15.40;;
75552;SDS011;64136;53.118;17.996;2022-10-15T12:44:19;17.60;;;12.40;;
75552;SDS011;64136;53.118;17.996;2022-10-15T12:46:54;23.20;;;14.10;;
75552;SDS011;64136;53.118;17.996;2022-10-15T12:51:54;28.60;;;14.50;;
75552;SDS011;64136;53.118;17.996;2022-10-15T12:54:41;22.60;;;13.90;;
75552;SDS011;64136;53.118;17.996;2022-10-15T13:02:49;25.60;;;14.10;;
75552;SDS011;64136;53.118;17.996;2022-10-15T13:07:55;21.20;;;13.40;;
75552;SDS011;64136;53.118;17.996;2022-10-15T13:12:54;24.80;;;16.50;;
75552;SDS011;64136;53.118;17.996;2022-10-15T13:15:24;24.20;;;15.40;;
75552;SDS011;64136;53.118;17.996;2022-10-15T13:17:51;22.40;;;15.20;;
75552;SDS011;64136;53.118;17.996;2022-10-15T13:20:27;27.20;;;15.60;;
75552;SDS011;64136;53.118;17.996;2022-10-15T13:23:16;22.70;;;14.20;;
75552;SDS011;64136;53.118;17.996;2022-10-15T13:25:43;29.10;;;18.80;;
75552;SDS011;64136;53.118;17.996;2022-10-15T13:28:27;25.30;;;16.60;;
75552;SDS011;64136;53.118;17.996;2022-10-15T13:33:22;17.10;;;11.70;;
75552;SDS011;64136;53.118;17.996;2022-10-15T13:35:49;27.30;;;16.40;;
75552;SDS011;64136;53.118;17.996;2022-10-15T13:38:20;25.10;;;15.90;;
75552;SDS011;64136;53.118;17.996;2022-10-15T13:40:49;23.30;;;15.10;;
75552;SDS011;64136;53.118;17.996;2022-10-15T13:43:25;25.80;;;15.20;;
75552;SDS011;64136;53.118;17.996;2022-10-15T13:45:53;22.10;;;14.30;;
75552;SDS011;64136;53.118;17.996;2022-10-15T13:48:25;19.30;;;12.80;;
75552;SDS011;64136;53.118;17.996;2022-10-15T13:50:54;25.50;;;17.50;;
75552;SDS011;64136;53.118;17.996;2022-10-15T13:56:02;22.90;;;14.80;;
75552;SDS011;64136;53.118;17.996;2022-10-15T13:58:40;22.70;;;13.80;;
75552;SDS011;64136;53.118;17.996;2022-10-15T14:01:13;22.30;;;14.00;;
75552;SDS011;64136;53.118;17.996;2022-10-15T14:03:45;24.10;;;12.70;;
75552;SDS011;64136;53.118;17.996;2022-10-15T14:06:15;22.80;;;14.00;;
75552;SDS011;64136;53.118;17.996;2022-10-15T14:08:44;24.30;;;13.10;;
75552;SDS011;64136;53.118;17.996;2022-10-15T14:11:12;26.70;;;15.40;;
75552;SDS011;64136;53.118;17.996;2022-10-15T14:13:43;22.50;;;13.40;;
75552;SDS011;64136;53.118;17.996;2022-10-15T14:16:14;18.40;;;11.90;;
75552;SDS011;64136;53.118;17.996;2022-10-15T14:18:47;17.70;;;11.70;;
75552;SDS011;64136;53.118;17.996;2022-10-15T14:21:22;20.10;;;13.10;;
75552;SDS011;64136;53.118;17.996;2022-10-15T14:26:37;18.70;;;12.20;;
75552;SDS011;64136;53.118;17.996;2022-10-15T14:29:04;20.50;;;12.60;;
75552;SDS011;64136;53.118;17.996;2022-10-15T14:31:35;15.10;;;10.50;;
75552;SDS011;64136;53.118;17.996;2022-10-15T14:37:01;22.40;;;13.70;;
75552;SDS011;64136;53.118;17.996;2022-10-15T14:39:30;16.90;;;11.70;;
75552;SDS011;64136;53.118;17.996;2022-10-15T14:42:02;18.40;;;12.80;;
75552;SDS011;64136;53.118;17.996;2022-10-15T14:44:46;20.20;;;13.00;;
75552;SDS011;64136;53.118;17.996;2022-10-15T14:47:17;16.20;;;10.80;;
75552;SDS011;64136;53.118;17.996;2022-10-15T14:49:44;18.40;;;11.60;;
75552;SDS011;64136;53.118;17.996;2022-10-15T14:52:13;20.70;;;13.30;;
75552;SDS011;64136;53.118;17.996;2022-10-15T14:54:46;19.60;;;12.70;;
75552;SDS011;64136;53.118;17.996;2022-10-15T14:57:35;19.60;;;12.80;;
75552;SDS011;64136;53.118;17.996;2022-10-15T15:00:04;16.20;;;9.80;;
75552;SDS011;64136;53.118;17.996;2022-10-15T15:02:56;20.90;;;12.30;;
75552;SDS011;64136;53.118;17.996;2022-10-15T15:07:51;18.20;;;10.80;;
75552;SDS011;64136;53.118;17.996;2022-10-15T15:10:19;16.20;;;10.80;;
75552;SDS011;64136;53.118;17.996;2022-10-15T15:12:49;17.70;;;11.10;;
75552;SDS011;64136;53.118;17.996;2022-10-15T15:15:19;19.00;;;11.20;;
75552;SDS011;64136;53.118;17.996;2022-10-15T15:17:47;18.80;;;10.50;;
75552;SDS011;64136;53.118;17.996;2022-10-15T15:20:14;20.40;;;12.00;;
75552;SDS011;64136;53.118;17.996;2022-10-15T15:22:45;18.60;;;11.60;;
75552;SDS011;64136;53.118;17.996;2022-10-15T15:25:16;18.30;;;12.40;;
75552;SDS011;64136;53.118;17.996;2022-10-15T15:27:44;17.20;;;10.70;;
75552;SDS011;64136;53.118;17.996;2022-10-15T15:30:22;15.60;;;11.00;;
75552;SDS011;64136;53.118;17.996;2022-10-15T15:32:49;17.90;;;11.70;;
75552;SDS011;64136;53.118;17.996;2022-10-15T15:35:21;20.60;;;13.10;;
75552;SDS011;64136;53.118;17.996;2022-10-15T15:37:50;17.40;;;10.90;;
75552;SDS011;64136;53.118;17.996;2022-10-15T15:40:17;19.40;;;11.90;;
75552;SDS011;64136;53.118;17.996;2022-10-15T15:42:45;21.50;;;11.90;;
75552;SDS011;64136;53.118;17.996;2022-10-15T15:45:13;23.10;;;11.60;;
75552;SDS011;64136;53.118;17.996;2022-10-15T15:47:43;19.20;;;10.60;;
75552;SDS011;64136;53.118;17.996;2022-10-15T15:50:10;19.40;;;11.10;;
75552;SDS011;64136;53.118;17.996;2022-10-15T15:52:37;20.30;;;10.80;;
75552;SDS011;64136;53.118;17.996;2022-10-15T15:55:03;20.80;;;12.30;;
75552;SDS011;64136;53.118;17.996;2022-10-15T15:57:30;18.30;;;11.30;;
75552;SDS011;64136;53.118;17.996;2022-10-15T15:59:57;17.10;;;10.40;;
75552;SDS011;64136;53.118;17.996;2022-10-15T16:02:23;20.10;;;11.10;;
75552;SDS011;64136;53.118;17.996;2022-10-15T16:04:50;15.80;;;9.20;;
75552;SDS011;64136;53.118;17.996;2022-10-15T16:07:16;36.40;;;23.00;;
75552;SDS011;64136;53.118;17.996;2022-10-15T16:09:43;28.80;;;16.60;;
75552;SDS011;64136;53.118;17.996;2022-10-15T16:12:09;45.40;;;36.30;;
75552;SDS011;64136;53.118;17.996;2022-10-15T16:14:36;20.80;;;14.50;;
75552;SDS011;64136;53.118;17.996;2022-10-15T16:17:02;21.00;;;14.00;;
75552;SDS011;64136;53.118;17.996;2022-10-15T16:19:29;27.80;;;14.20;;
75552;SDS011;64136;53.118;17.996;2022-10-15T16:21:55;21.40;;;12.20;;
75552;SDS011;64136;53.118;17.996;2022-10-15T16:24:22;19.70;;;12.30;;
75552;SDS011;64136;53.118;17.996;2022-10-15T16:26:48;21.80;;;14.60;;
75552;SDS011;64136;53.118;17.996;2022-10-15T16:29:15;22.90;;;15.80;;
75552;SDS011;64136;53.118;17.996;2022-10-15T16:31:42;23.50;;;14.40;;
75552;SDS011;64136;53.118;17.996;2022-10-15T16:34:08;20.20;;;12.40;;
75552;SDS011;64136;53.118;17.996;2022-10-15T16:36:35;21.10;;;12.60;;
75552;SDS011;64136;53.118;17.996;2022-10-15T16:39:02;20.90;;;12.40;;
75552;SDS011;64136;53.118;17.996;2022-10-15T16:41:29;24.50;;;15.50;;
75552;SDS011;64136;53.118;17.996;2022-10-15T16:43:55;21.10;;;14.20;;
75552;SDS011;64136;53.118;17.996;2022-10-15T16:46:22;23.70;;;15.90;;
75552;SDS011;64136;53.118;17.996;2022-10-15T16:48:52;17.30;;;11.10;;